Tropical Cyclones
[Index]
Main Index Home Page Stock Weather Photos Extreme Storms Discussion Storm News and Storm Chasing Reports Tropical Cyclones / Hurricanes / Typhoons Weather Data and Links Wild Fires / Bushfires Weather Observation Techniques Weather Picture Catalogue Tornado Pictures and Reports Stock Video Footage and DVDs for sale
Season 1995-1996 Tropical Cyclone FRANK Track Map
Season 1995-1996 Summaries: [BoM-AU] [JTWC-AU] [JTWC-SIO] [JTWC-SPAC] [JTWC-SH]
<<- Previous TC | BoM 1995-1996 Season | Next TC ->>

click for intensity scale information  Lat/long Grid: Show Hide

 Date Labels: Show Hide

Bureau of Meteorology Tropical Cyclone Data

Name: FRANK
Number: 780 / 199596_03

06 Dec 1995 04:00 UTC to 13 Dec 1995 07:00 UTC

    date/time    lat    long    hPa   cat  kts
1995-12-06 04   10.4   116.8   1005         19          
1995-12-06 07   10.5   117.0   1003         21          
1995-12-06 10   10.7   117.3   1002         23          
1995-12-06 13   10.9   117.6   1002         23          
1995-12-06 16   11.1   117.9   1000         27          
1995-12-06 19   11.3   118.1    998         29          
1995-12-06 22   11.5   118.5    996         33          
1995-12-07 01   11.8   118.7    996         33          
1995-12-07 04   12.3   118.8    995    1    35          
1995-12-07 07   12.6   118.8    995    1    35          
1995-12-07 10   12.9   118.7    995    1    35          
1995-12-07 13   13.1   118.6    990    1    41          
1995-12-07 16   13.4   118.4    990    1    41          
1995-12-07 19   13.6   118.2    990    1    41          
1995-12-07 22   13.8   117.9    985    2    47          
1995-12-08 01   14.1   117.7    985    2    47          
1995-12-08 04   14.3   117.5    985    2    47          
1995-12-08 07   14.7   117.3    980    2    54          
1995-12-08 10   15.1   117.0    980    2    54          
1995-12-08 13   15.4   116.8    975    2    60          
1995-12-08 16   15.6   116.6    975    2    60          
1995-12-08 19   15.9   116.4    970    3    66          
1995-12-08 22   16.2   116.2    965    3    70          
1995-12-09 01   16.5   116.0    965    3    70          
1995-12-09 04   17.0   115.7    965    3    70          
1995-12-09 07   17.3   115.7    960    3    76          
1995-12-09 10   17.7   115.6    955    4    80          
1995-12-09 13   18.1   115.4    955    4    80          
1995-12-09 16   18.4   115.3    955    4    80          
1995-12-09 19   18.6   115.2    955    4    80          
1995-12-09 22   18.9   115.1    950    4    84          
1995-12-10 01   19.3   114.9    950    4    84          
1995-12-10 04   19.6   114.7    950    4    84          
1995-12-10 07   19.8   114.6    950    4    84          
1995-12-10 10   20.0   114.5    955    4    80          
1995-12-10 13   20.1   114.3    960    3    76          
1995-12-10 16   20.2   114.2    965    3    70          
1995-12-10 19   20.4   114.2    965    3    70          
1995-12-10 22   20.7   114.1    965    3    70          
1995-12-11 01   20.9   113.9    965    3    70          
1995-12-11 04   21.1   113.7    965    3    70          
1995-12-11 07   21.4   113.4    965    3    70          
1995-12-11 10   21.7   113.2    965    3    70          
1995-12-11 13   21.9   113.0    970    3    66          
1995-12-11 16   22.1   112.9    970    3    66          
1995-12-11 19   22.4   112.8    975    2    60          
1995-12-11 22   22.7   112.8    980    2    54          
1995-12-12 01   22.9   112.8    985    2    47          
1995-12-12 04   23.2   112.8    985    2    47          
1995-12-12 07   23.6   112.9    990    1    41          
1995-12-12 10   24.0   113.1    990    1    41          
1995-12-12 13   24.5   113.3    995    1    35          
1995-12-12 16   24.9   113.6    995    1    35          
1995-12-12 19   25.4   113.8    998         29          
1995-12-12 22   25.8   114.1    998         29          
1995-12-13 01   26.2   114.4   1000         27          
1995-12-13 07   27.2   115.5   1000         27          
Winds are 10-min average.

Tropical cyclone tracks developed by Michael Bath using data from the Bureau of Meteorology and Google Maps.


[Australian Severe Weather index] [Copyright Notice] [Email Contacts] [Search This Site] [Privacy Policy]
Document: tropical_cyclone_frank.htm Updated: 30 May 2013